createdAt,value
2019-02-16T00:02:26.548Z,102443.98
2019-02-16T00:04:55.043Z,102436.88
2019-02-16T00:07:23.507Z,102435.95
2019-02-16T00:09:52.035Z,102442.19
2019-02-16T00:12:20.486Z,102435.97
2019-02-16T00:14:48.969Z,102433.72
2019-02-16T00:17:17.440Z,102430.66
2019-02-16T00:19:45.922Z,102429.33
2019-02-16T00:22:14.395Z,102429.74
2019-02-16T00:24:42.882Z,102430.19
2019-02-16T00:27:11.359Z,102423.55
2019-02-16T00:29:39.847Z,102424.88
2019-02-16T00:32:08.307Z,102416.84
2019-02-16T00:34:36.793Z,102421.74
2019-02-16T00:37:05.263Z,102423.50
2019-02-16T00:39:33.754Z,102422.16
2019-02-16T00:42:02.234Z,102413.30
2019-02-16T00:44:30.731Z,102415.05
2019-02-16T00:46:59.197Z,102411.06
2019-02-16T00:49:27.706Z,102414.13
2019-02-16T00:51:56.289Z,102414.61
2019-02-16T00:54:24.780Z,102414.13
2019-02-16T00:56:53.242Z,102411.02
2019-02-16T00:59:21.727Z,102413.67
2019-02-16T01:01:50.256Z,102410.07
2019-02-16T01:04:19.834Z,102407.47
2019-02-16T01:06:48.473Z,102400.34
2019-02-16T01:09:16.958Z,102392.75
2019-02-16T01:11:45.432Z,102397.61
2019-02-16T01:14:13.920Z,102398.50
2019-02-16T01:16:42.394Z,102390.05
2019-02-16T01:19:10.889Z,102386.53
2019-02-16T01:21:39.336Z,102385.13
2019-02-16T01:24:07.830Z,102375.84
2019-02-16T01:26:36.283Z,102375.80
2019-02-16T01:29:04.775Z,102372.60
2019-02-16T01:31:33.241Z,102369.08
2019-02-16T01:34:01.717Z,102371.27
2019-02-16T01:36:30.175Z,102364.66
2019-02-16T01:38:58.717Z,102367.31
2019-02-16T01:41:27.140Z,102361.05
2019-02-16T01:43:55.631Z,102360.20
2019-02-16T01:46:24.088Z,102357.52
2019-02-16T01:48:52.572Z,102353.47
2019-02-16T01:51:21.052Z,102353.88
2019-02-16T01:53:49.524Z,102349.01
2019-02-16T01:56:18.003Z,102345.44
2019-02-16T01:58:46.497Z,102347.65
2019-02-16T02:01:14.945Z,102340.16
2019-02-16T02:03:43.438Z,102338.79
2019-02-16T02:06:11.882Z,102333.00
2019-02-16T02:08:40.358Z,102333.06
2019-02-16T02:11:08.996Z,102325.09
2019-02-16T02:13:37.485Z,102321.11
2019-02-16T02:16:05.943Z,102316.23
2019-02-16T02:18:34.416Z,102317.56
2019-02-16T02:21:02.877Z,102318.00
2019-02-16T02:23:31.356Z,102312.25
2019-02-16T02:25:59.836Z,102306.96
2019-02-16T02:28:28.312Z,102312.27
2019-02-16T02:30:56.774Z,102306.05
2019-02-16T02:33:25.306Z,102316.20
2019-02-16T02:35:53.799Z,102304.27
2019-02-16T02:38:22.261Z,102307.34
2019-02-16T02:40:50.739Z,102304.19
2019-02-16T02:43:19.194Z,102297.10
2019-02-16T02:45:47.686Z,102293.59
2019-02-16T02:48:16.146Z,102296.69
2019-02-16T02:50:44.648Z,102295.34
2019-02-16T02:53:13.120Z,102294.03
2019-02-16T02:55:41.597Z,102290.46
2019-02-16T02:58:10.051Z,102296.19
2019-02-16T03:00:38.534Z,102298.81
2019-02-16T03:03:06.996Z,102290.34
2019-02-16T03:05:35.473Z,102296.13
2019-02-16T03:08:03.938Z,102291.70
2019-02-16T03:10:32.400Z,102288.58
2019-02-16T03:13:00.876Z,102286.39
2019-02-16T03:15:29.355Z,102285.98
2019-02-16T03:17:57.809Z,102282.44
2019-02-16T03:20:26.291Z,102282.41
2019-02-16T03:23:15.237Z,102278.89
2019-02-16T03:26:07.392Z,102283.32
2019-02-16T03:28:38.910Z,102280.19
2019-02-16T03:31:25.484Z,102284.17
2019-02-16T03:34:02.836Z,102278.86
2019-02-16T03:36:49.245Z,102273.99
2019-02-16T03:39:17.767Z,102278.42
2019-02-16T03:41:46.250Z,102276.63
2019-02-16T03:44:14.710Z,102276.97
2019-02-16T03:46:43.201Z,102271.66
2019-02-16T03:49:11.666Z,102272.10
2019-02-16T03:51:40.163Z,102265.46
2019-02-16T03:54:08.629Z,102266.76
2019-02-16T03:56:37.113Z,102264.14
2019-02-16T03:59:05.596Z,102259.27
2019-02-16T04:01:34.089Z,102257.47
2019-02-16T04:04:02.558Z,102265.84
2019-02-16T04:06:31.059Z,102270.68
2019-02-16T04:08:59.521Z,102266.28
2019-02-16T04:11:28.020Z,102266.28
2019-02-16T04:13:56.471Z,102263.59
2019-02-16T04:16:24.960Z,102254.20
2019-02-16T04:18:53.428Z,102254.23
2019-02-16T04:21:21.907Z,102254.75
2019-02-16T04:23:50.365Z,102241.81
2019-02-16T04:26:18.857Z,102243.59
2019-02-16T04:28:47.319Z,102243.00
2019-02-16T04:31:15.800Z,102232.83
2019-02-16T04:33:44.260Z,102220.45
2019-02-16T04:36:12.739Z,102218.27
2019-02-16T04:38:41.213Z,102216.94
2019-02-16T04:41:09.699Z,102217.79
2019-02-16T04:43:38.157Z,102208.91
2019-02-16T04:46:06.640Z,102206.26
2019-02-16T04:48:35.099Z,102208.02
2019-02-16T04:51:03.590Z,102202.72
2019-02-16T04:53:32.055Z,102203.60
2019-02-16T04:56:00.551Z,102210.20
2019-02-16T04:58:29.007Z,102203.09
2019-02-16T05:00:57.506Z,102209.72
2019-02-16T05:03:25.969Z,102198.97
2019-02-16T05:05:54.449Z,102203.39
2019-02-16T05:08:22.924Z,102190.16
2019-02-16T05:10:51.434Z,102195.42
2019-02-16T05:13:19.890Z,102189.27
2019-02-16T05:15:48.337Z,102194.55
2019-02-16T05:18:16.811Z,102188.76
2019-02-16T05:20:45.272Z,102184.73
2019-02-16T05:23:13.752Z,102186.55
2019-02-16T05:25:42.221Z,102186.55
2019-02-16T05:28:10.714Z,102180.25
2019-02-16T05:30:39.181Z,102185.11
2019-02-16T05:33:07.679Z,102187.23
2019-02-16T05:35:36.125Z,102182.02
2019-02-16T05:38:04.606Z,102179.32
2019-02-16T05:40:33.065Z,102182.37
2019-02-16T05:43:01.551Z,102180.53
2019-02-16T05:45:30.017Z,102187.15
2019-02-16T05:47:58.497Z,102184.90
2019-02-16T05:50:26.967Z,102180.92
2019-02-16T05:52:55.456Z,102179.52
2019-02-16T05:55:23.905Z,102178.63
2019-02-16T05:57:52.492Z,102186.58
2019-02-16T06:00:22.598Z,102184.77
2019-02-16T06:02:51.093Z,102181.59
2019-02-16T06:05:19.562Z,102186.00
2019-02-16T06:07:48.060Z,102179.42
2019-02-16T06:10:16.556Z,102177.12
2019-02-16T06:12:45.029Z,102169.66
2019-02-16T06:15:13.510Z,102172.84
2019-02-16T06:17:41.976Z,102167.41
2019-02-16T06:20:10.462Z,102171.08
2019-02-16T06:22:38.922Z,102173.19
2019-02-16T06:25:07.476Z,102175.01
2019-02-16T06:27:35.947Z,102172.70
2019-02-16T06:30:05.763Z,102167.00
2019-02-16T06:32:34.242Z,102169.17
2019-02-16T06:35:13.530Z,102167.41
2019-02-16T06:37:41.993Z,102178.98
2019-02-16T06:40:10.473Z,102178.09
2019-02-16T06:42:38.935Z,102175.41
2019-02-16T06:45:07.647Z,102176.33
2019-02-16T06:47:36.121Z,102174.12
2019-02-16T06:50:05.734Z,102179.73
2019-02-16T06:52:34.187Z,102186.88
2019-02-16T06:55:02.670Z,102186.97
2019-02-16T06:57:31.591Z,102186.05
2019-02-16T07:00:00.125Z,102183.88
2019-02-16T07:02:29.887Z,102191.84
2019-02-16T07:04:58.384Z,102192.28
2019-02-16T07:07:26.842Z,102189.53
2019-02-16T07:09:55.325Z,102186.45
2019-02-16T07:12:23.773Z,102191.35
2019-02-16T07:14:52.249Z,102191.39
2019-02-16T07:17:22.343Z,102183.05
2019-02-16T07:19:52.095Z,102186.19
2019-02-16T07:22:20.549Z,102182.25
2019-02-16T07:24:49.044Z,102185.78
2019-02-16T07:27:17.501Z,102184.46
2019-02-16T07:29:46.011Z,102188.95
2019-02-16T07:32:14.484Z,102188.12
2019-02-16T07:34:42.972Z,102182.81
2019-02-16T07:37:11.492Z,102179.36
2019-02-16T07:39:39.972Z,102172.77
2019-02-16T07:42:08.421Z,102174.17
2019-02-16T07:44:47.248Z,102176.86
2019-02-16T07:47:17.347Z,102176.08
2019-02-16T07:49:56.229Z,102171.25
2019-02-16T07:52:29.317Z,102168.63
2019-02-16T07:54:59.440Z,102170.52
2019-02-16T07:57:35.364Z,102170.64
2019-02-16T08:00:06.738Z,102175.56
2019-02-16T08:02:36.911Z,102175.27
2019-02-16T08:05:07.523Z,102168.69
2019-02-16T08:07:40.077Z,102173.17
2019-02-16T08:13:19.170Z,102173.33
2019-02-16T08:15:52.189Z,102172.53
2019-02-16T08:21:23.201Z,102156.16
2019-02-16T08:23:59.537Z,102154.34
2019-02-16T08:26:41.744Z,102146.73
2019-02-16T08:29:11.858Z,102153.29
2019-02-16T08:31:54.035Z,102154.48
2019-02-16T08:34:29.719Z,102144.56
2019-02-16T08:36:59.839Z,102144.28
2019-02-16T08:39:32.852Z,102145.01
2019-02-16T08:42:02.967Z,102140.78
2019-02-16T08:44:41.696Z,102144.89
2019-02-16T08:47:14.312Z,102143.33
2019-02-16T08:50:00.819Z,102140.80
2019-02-16T08:52:46.190Z,102128.83
2019-02-16T08:55:16.307Z,102137.10
2019-02-16T08:57:49.077Z,102130.36
2019-02-16T09:00:31.386Z,102137.56
2019-02-16T09:03:17.811Z,102134.20
2019-02-16T09:05:47.933Z,102125.29
2019-02-16T09:08:23.759Z,102121.30
2019-02-16T09:10:56.315Z,102123.16
2019-02-16T09:13:29.128Z,102118.08
2019-02-16T09:15:59.256Z,102134.91
2019-02-16T09:18:35.147Z,102128.17
2019-02-16T09:21:21.474Z,102126.11
2019-02-16T09:24:09.392Z,102113.83
2019-02-16T09:26:51.842Z,102116.82
2019-02-16T09:32:23.295Z,102119.20
2019-02-16T09:34:53.415Z,102120.20
2019-02-16T09:37:25.959Z,102117.66
2019-02-16T09:39:56.056Z,102118.17
2019-02-16T09:42:38.315Z,102117.84
2019-02-16T09:45:09.796Z,102120.56
2019-02-16T09:47:39.936Z,102117.72
2019-02-16T09:50:12.994Z,102124.90
2019-02-16T09:52:43.128Z,102114.14
2019-02-16T09:55:13.233Z,102115.45
2019-02-16T09:57:58.387Z,102109.42
2019-02-16T10:00:46.843Z,102113.64
2019-02-16T10:06:25.410Z,102105.56
2019-02-16T10:08:55.512Z,102107.80
2019-02-16T10:11:28.809Z,102106.54
2019-02-16T10:13:58.917Z,102108.50
2019-02-16T10:16:34.800Z,102110.30
2019-02-16T10:19:07.557Z,102112.64
2019-02-16T10:21:52.343Z,102118.45
2019-02-16T10:24:38.643Z,102105.70
2019-02-16T10:27:14.209Z,102102.23
2019-02-16T10:29:53.071Z,102089.02
2019-02-16T10:32:28.671Z,102096.36
2019-02-16T10:35:01.422Z,102092.93
2019-02-16T10:37:31.555Z,102086.07
2019-02-16T10:40:07.331Z,102090.63
2019-02-16T10:42:37.452Z,102089.25
2019-02-16T10:45:10.484Z,102092.47
2019-02-16T10:47:43.035Z,102090.16
2019-02-16T10:50:16.412Z,102082.33
2019-02-16T10:53:02.802Z,102072.50
2019-02-16T10:55:32.908Z,102069.33
2019-02-16T10:58:17.928Z,102064.08
2019-02-16T11:01:04.147Z,102063.66
2019-02-16T11:03:40.008Z,102058.19
2019-02-16T11:06:13.107Z,102060.14
2019-02-16T11:08:46.439Z,102060.48
2019-02-16T11:11:19.249Z,102053.96
2019-02-16T11:13:49.390Z,102051.64
2019-02-16T11:16:23.503Z,102053.45
2019-02-16T11:18:53.637Z,102054.41
2019-02-16T11:21:32.395Z,102057.72
2019-02-16T11:24:05.347Z,102060.09
2019-02-16T11:26:44.646Z,102062.25
2019-02-16T11:29:17.768Z,102062.80
2019-02-16T11:31:47.869Z,102062.84
2019-02-16T11:34:18.001Z,102063.40
2019-02-16T11:36:48.128Z,102066.39
2019-02-16T11:39:30.472Z,102060.02
2019-02-16T11:42:00.575Z,102056.77
2019-02-16T11:44:36.416Z,102058.58
2019-02-16T11:47:09.234Z,102056.75
2019-02-16T11:49:42.053Z,102054.23
2019-02-16T11:52:12.147Z,102051.01
2019-02-16T11:54:51.195Z,102055.61
2019-02-16T11:57:30.247Z,102044.80
2019-02-16T12:00:03.154Z,102036.43
2019-02-16T12:02:39.485Z,102040.27
2019-02-16T12:05:11.280Z,102037.82
2019-02-16T12:07:43.916Z,102029.30
2019-02-16T12:10:16.733Z,102031.23
2019-02-16T12:12:49.719Z,102027.20
2019-02-16T12:15:19.841Z,102032.60
2019-02-16T12:17:52.657Z,102027.02
2019-02-16T12:20:38.681Z,102035.12
2019-02-16T12:23:23.877Z,102040.82
2019-02-16T12:25:59.483Z,102046.19
2019-02-16T12:28:29.611Z,102040.53
2019-02-16T12:31:08.753Z,102039.95
2019-02-16T12:33:47.751Z,102037.44
2019-02-16T12:36:21.916Z,102026.63
2019-02-16T12:38:52.319Z,102035.61
2019-02-16T12:41:24.871Z,102030.47
2019-02-16T12:44:11.170Z,102030.39
2019-02-16T12:46:59.615Z,102029.81
2019-02-16T12:49:44.735Z,102023.46
2019-02-16T12:52:24.062Z,102024.70
2019-02-16T12:55:14.790Z,102021.20
2019-02-16T12:57:44.822Z,102019.77
2019-02-16T13:00:20.767Z,102019.84
2019-02-16T13:03:08.972Z,102013.14
2019-02-16T13:05:48.339Z,102007.11
2019-02-16T13:08:21.155Z,102003.69
2019-02-16T13:11:00.334Z,102019.48
2019-02-16T13:13:36.436Z,102019.77
2019-02-16T13:16:18.703Z,102022.00
2019-02-16T13:18:54.380Z,102020.36
2019-02-16T13:21:40.614Z,102008.69
2019-02-16T13:24:25.594Z,101999.16
2019-02-16T13:27:11.792Z,102000.88
2019-02-16T13:29:57.984Z,102007.11
2019-02-16T13:32:30.815Z,102006.67
2019-02-16T13:35:10.086Z,102000.88
2019-02-16T13:37:46.344Z,101999.53
2019-02-16T13:40:19.345Z,101991.69
2019-02-16T13:42:49.458Z,101988.51
2019-02-16T13:48:11.603Z,101979.83
2019-02-16T13:50:41.781Z,101976.22
2019-02-16T13:53:28.024Z,101971.66
2019-02-16T13:56:13.154Z,101969.18
2019-02-16T13:58:46.195Z,101965.48
2019-02-16T14:01:19.288Z,101963.09
2019-02-16T14:03:52.369Z,101956.16
2019-02-16T14:06:25.497Z,101955.98
2019-02-16T14:09:01.742Z,101954.22
2019-02-16T14:11:31.857Z,101951.05
2019-02-16T14:14:07.927Z,101949.13
2019-02-16T14:16:38.072Z,101952.70
2019-02-16T14:19:06.527Z,101953.24
2019-02-16T14:21:35.010Z,101953.17
2019-02-16T14:24:03.488Z,101944.45
2019-02-16T14:26:31.967Z,101945.36
2019-02-16T14:29:00.446Z,101949.95
2019-02-16T14:31:28.930Z,101950.66
2019-02-16T14:33:57.410Z,101945.36
2019-02-16T14:36:25.891Z,101945.22
2019-02-16T14:38:58.657Z,101942.85
2019-02-16T14:41:27.152Z,101941.76
2019-02-16T14:43:55.620Z,101938.26
2019-02-16T14:46:24.081Z,101938.37
2019-02-16T14:48:52.584Z,101934.86
2019-02-16T14:51:21.044Z,101932.17
2019-02-16T14:53:49.527Z,101930.97
2019-02-16T14:56:17.978Z,101931.15
2019-02-16T14:58:46.462Z,101932.49
2019-02-16T15:01:14.936Z,101930.45
2019-02-16T15:03:43.429Z,101925.45
2019-02-16T15:06:11.899Z,101926.69
2019-02-16T15:08:40.429Z,101927.27
2019-02-16T15:11:08.883Z,101917.64
2019-02-16T15:13:37.399Z,101920.30
2019-02-16T15:16:05.901Z,101921.28
2019-02-16T15:18:34.390Z,101922.88
2019-02-16T15:21:02.857Z,101924.73
2019-02-16T15:23:31.339Z,101919.58
2019-02-16T15:26:01.344Z,101917.94
2019-02-16T15:28:30.148Z,101916.45
2019-02-16T15:30:58.628Z,101912.75
2019-02-16T15:33:27.144Z,101906.02
2019-02-16T15:35:55.607Z,101913.49
2019-02-16T15:38:24.107Z,101918.65
2019-02-16T15:40:52.566Z,101911.14
2019-02-16T15:43:21.045Z,101909.59
2019-02-16T15:45:49.518Z,101915.08
2019-02-16T15:48:17.986Z,101908.58
2019-02-16T15:50:46.478Z,101905.20
2019-02-16T15:53:14.946Z,101910.69
2019-02-16T15:55:43.447Z,101908.16
2019-02-16T15:58:11.924Z,101902.93
2019-02-16T16:00:40.519Z,101901.75
2019-02-16T16:03:09.036Z,101900.05
2019-02-16T16:05:37.510Z,101893.95
2019-02-16T16:08:23.742Z,101894.14
2019-02-16T16:10:56.593Z,101886.64
2019-02-16T16:13:29.427Z,101893.59
2019-02-16T16:15:59.557Z,101890.61
2019-02-16T16:18:29.664Z,101895.37
2019-02-16T16:21:16.174Z,101896.46
2019-02-16T16:23:46.278Z,101902.90
2019-02-16T16:26:22.195Z,101896.38
2019-02-16T16:29:00.624Z,101908.20
2019-02-16T16:31:29.880Z,101906.59
2019-02-16T16:34:09.042Z,101909.05
2019-02-16T16:36:39.163Z,101910.69
2019-02-16T16:39:12.611Z,101912.17
2019-02-16T16:41:51.723Z,101911.47
2019-02-16T16:44:24.698Z,101913.89
2019-02-16T16:47:06.581Z,101901.16
2019-02-16T16:49:42.541Z,101907.67
2019-02-16T16:52:12.680Z,101910.59
2019-02-16T16:54:45.494Z,101901.33
2019-02-16T16:57:24.676Z,101917.20
2019-02-16T17:02:46.705Z,101921.44
2019-02-16T17:05:25.668Z,101921.07
2019-02-16T17:08:01.292Z,101929.27
2019-02-16T17:10:43.467Z,101929.11
2019-02-16T17:13:29.751Z,101927.02
2019-02-16T17:16:12.106Z,101931.13
2019-02-16T17:18:51.168Z,101925.89
2019-02-16T17:21:37.776Z,101928.75
2019-02-16T17:24:16.971Z,101929.31
2019-02-16T17:26:52.893Z,101927.27
2019-02-16T17:29:22.997Z,101924.70
2019-02-16T17:31:55.853Z,101930.25
2019-02-16T17:34:32.031Z,101929.46
2019-02-16T17:37:02.167Z,101926.95
2019-02-16T17:39:34.948Z,101925.73
2019-02-16T17:42:10.854Z,101928.54
2019-02-16T17:44:53.198Z,101925.05
2019-02-16T17:47:39.597Z,101926.96
2019-02-16T17:50:10.877Z,101922.65
2019-02-16T17:52:43.985Z,101926.38
2019-02-16T17:55:19.922Z,101922.45
2019-02-16T18:00:44.531Z,101935.17
2019-02-16T18:03:26.940Z,101931.30
2019-02-16T18:05:57.051Z,101930.07
2019-02-16T18:08:36.183Z,101938.65
2019-02-16T18:11:21.529Z,101937.40
2019-02-16T18:13:57.605Z,101934.48
2019-02-16T18:16:27.763Z,101936.78
2019-02-16T18:19:00.636Z,101938.25
2019-02-16T18:21:31.003Z,101928.14
2019-02-16T18:24:06.579Z,101928.77
2019-02-16T18:26:56.589Z,101926.14
2019-02-16T18:29:24.673Z,101936.02
2019-02-16T18:32:01.084Z,101934.69
2019-02-16T18:34:34.061Z,101933.44
2019-02-16T18:37:04.200Z,101937.55
2019-02-16T18:39:49.584Z,101936.73
2019-02-16T18:42:36.244Z,101936.82
2019-02-16T18:45:06.997Z,101941.81
2019-02-16T18:47:49.179Z,101946.43
2019-02-16T18:50:22.015Z,101945.22
2019-02-16T18:52:52.145Z,101944.02
2019-02-16T18:55:31.135Z,101943.65
2019-02-16T18:58:04.224Z,101941.98
2019-02-16T19:00:40.013Z,101943.86
2019-02-16T19:03:10.230Z,101945.70
2019-02-16T19:05:43.380Z,101944.86
2019-02-16T19:08:31.602Z,101944.48
2019-02-16T19:13:59.292Z,101938.13
2019-02-16T19:16:29.504Z,101940.45
2019-02-16T19:19:17.714Z,101938.73
2019-02-16T19:21:53.469Z,101942.28
2019-02-16T19:27:43.959Z,101943.13
2019-02-16T19:30:20.200Z,101937.36
2019-02-16T19:32:54.912Z,101936.98
2019-02-16T19:35:25.074Z,101937.39
2019-02-16T19:38:00.752Z,101938.73
2019-02-16T19:40:36.744Z,101933.00
2019-02-16T19:43:18.916Z,101932.62
2019-02-16T19:46:04.883Z,101932.63
2019-02-16T19:48:34.996Z,101938.50
2019-02-16T19:51:17.304Z,101942.90
2019-02-16T19:54:03.884Z,101940.75
2019-02-16T19:56:48.977Z,101941.21
2019-02-16T19:59:33.894Z,101943.47
2019-02-16T20:02:03.992Z,101940.86
2019-02-16T20:04:34.138Z,101936.47
2019-02-16T20:07:22.337Z,101932.45
2019-02-16T20:12:52.960Z,101935.69
2019-02-16T20:15:31.937Z,101938.36
2019-02-16T20:18:10.604Z,101936.58
2019-02-16T20:20:43.307Z,101945.05
2019-02-16T20:23:22.239Z,101938.44
2019-02-16T20:25:52.353Z,101939.80
2019-02-16T20:28:25.001Z,101942.48
2019-02-16T20:30:58.194Z,101944.69
2019-02-16T20:33:34.250Z,101944.73
2019-02-16T20:36:04.385Z,101945.64
2019-02-16T20:38:37.402Z,101948.37
2019-02-16T20:41:10.509Z,101948.83
2019-02-16T20:43:40.627Z,101951.50
2019-02-16T20:46:13.472Z,101941.73
2019-02-16T20:48:46.045Z,101945.77
2019-02-16T20:51:24.977Z,101941.80
2019-02-16T20:53:55.146Z,101947.17
2019-02-16T20:56:34.277Z,101948.11
2019-02-16T20:59:19.496Z,101960.16
2019-02-16T21:01:55.345Z,101944.26
2019-02-16T21:04:28.042Z,101949.14
2019-02-16T21:06:58.130Z,101943.86
2019-02-16T21:09:28.279Z,101946.95
2019-02-16T21:12:01.311Z,101945.20
2019-02-16T21:14:34.529Z,101944.34
2019-02-16T21:17:10.097Z,101943.92
2019-02-16T21:19:43.244Z,101949.74
2019-02-16T21:22:13.388Z,101955.97
2019-02-16T21:24:49.518Z,101948.86
2019-02-16T21:27:19.623Z,101946.22
2019-02-16T21:29:49.721Z,101943.64
2019-02-16T21:32:26.077Z,101946.76
2019-02-16T21:34:59.159Z,101946.84
2019-02-16T21:37:45.738Z,101947.38
2019-02-16T21:40:21.354Z,101945.64
2019-02-16T21:42:51.648Z,101945.64
2019-02-16T21:45:21.932Z,101948.05
2019-02-16T21:48:10.223Z,101944.88
2019-02-16T21:50:56.525Z,101939.56
2019-02-16T21:53:29.496Z,101948.05
2019-02-16T21:56:02.466Z,101940.55
2019-02-16T21:58:32.922Z,101950.45
2019-02-16T22:01:12.026Z,101951.33
2019-02-16T22:03:58.642Z,101957.11
2019-02-16T22:06:31.838Z,101958.48
2019-02-16T22:09:19.814Z,101951.87
2019-02-16T22:12:05.320Z,101951.91
2019-02-16T22:14:33.742Z,101951.47
2019-02-16T22:17:02.255Z,101947.91
2019-02-16T22:19:30.740Z,101955.06
2019-02-16T22:21:59.233Z,101952.87
2019-02-16T22:24:27.764Z,101947.55
2019-02-16T22:26:56.248Z,101947.08
2019-02-16T22:29:24.717Z,101947.15
2019-02-16T22:31:53.215Z,101945.84
2019-02-16T22:34:21.751Z,101942.71
2019-02-16T22:36:52.895Z,101950.70
2019-02-16T22:39:21.376Z,101959.22
2019-02-16T22:41:49.871Z,101961.48
2019-02-16T22:44:18.399Z,101958.80
2019-02-16T22:46:50.038Z,101963.27
2019-02-16T22:49:18.852Z,101969.97
2019-02-16T22:51:47.369Z,101969.13
2019-02-16T22:54:17.235Z,101963.36
2019-02-16T22:56:45.722Z,101966.53
2019-02-16T22:59:14.186Z,101972.31
2019-02-16T23:01:42.964Z,101971.86
2019-02-16T23:04:11.427Z,101976.28
2019-02-16T23:06:39.927Z,101984.73
2019-02-16T23:09:10.588Z,101985.24
2019-02-16T23:11:39.086Z,101983.48
2019-02-16T23:14:07.539Z,101985.31
2019-02-16T23:16:36.103Z,101982.20
2019-02-16T23:19:04.588Z,101980.87
2019-02-16T23:21:33.108Z,101983.53
2019-02-16T23:24:01.896Z,101980.88
2019-02-16T23:26:30.366Z,101981.34
2019-02-16T23:28:58.860Z,101989.81
2019-02-16T23:31:27.326Z,101988.02
2019-02-16T23:33:56.376Z,101986.23
2019-02-16T23:36:25.282Z,101980.95
2019-02-16T23:38:54.141Z,101984.48
2019-02-16T23:41:24.216Z,101978.29
2019-02-16T23:43:53.141Z,101981.84
2019-02-16T23:46:21.979Z,101988.50
2019-02-16T23:48:50.573Z,101980.05
2019-02-16T23:51:19.056Z,101975.16
2019-02-16T23:53:47.564Z,101978.25
2019-02-16T23:56:16.049Z,101982.27
2019-02-16T23:58:49.312Z,101982.28
